Time;durP1;ratioP1;P1;durP2;ratioP2;P2;SDS_P1;SDS_P2;PMS_P1;PMS_P2;Temp;Humidity;BMP_temperature;BMP_pressure;BME280_temperature;BME280_humidity;BME280_pressure;Samples;Min_cycle;Max_cycle;Signal;HPM_P1;HPM_P2
2023/12/15 00:01:11;;;;;;;41.70;25.98;;;;;;;2.96;100.00;100217.91;5050036;28;20114;-77
2023/12/15 00:03:37;;;;;;;36.80;24.80;;;;;;;2.92;100.00;100224.19;5050498;28;20469;-79
2023/12/15 00:06:02;;;;;;;35.25;23.23;;;;;;;2.89;100.00;100227.78;5050868;28;20033;-77
2023/12/15 00:08:28;;;;;;;38.50;25.25;;;;;;;2.91;100.00;100230.31;5048804;28;20147;-78
2023/12/15 00:10:53;;;;;;;43.33;26.83;;;;;;;2.88;100.00;100237.41;5044755;28;20029;-78
2023/12/15 00:13:19;;;;;;;41.53;27.60;;;;;;;2.87;100.00;100235.72;5048288;28;20029;-78
2023/12/15 00:15:44;;;;;;;39.53;26.20;;;;;;;2.83;100.00;100234.16;5048922;28;20044;-78
2023/12/15 00:18:10;;;;;;;44.38;26.83;;;;;;;2.83;100.00;100236.75;5048264;28;20420;-78
2023/12/15 00:20:35;;;;;;;41.33;26.38;;;;;;;2.82;100.00;100247.28;5047677;28;20060;-77
2023/12/15 00:23:01;;;;;;;41.75;26.88;;;;;;;2.62;100.00;100245.66;5049395;28;20458;-77
2023/12/15 00:25:26;;;;;;;43.22;26.77;;;;;;;2.66;100.00;100255.00;5048716;28;20024;-78
2023/12/15 00:27:51;;;;;;;43.63;27.98;;;;;;;2.82;100.00;100242.94;5048834;28;20090;-77
2023/12/15 00:30:17;;;;;;;41.65;26.55;;;;;;;2.76;100.00;100247.59;5049038;28;20048;-78
2023/12/15 00:32:43;;;;;;;40.88;26.90;;;;;;;2.78;100.00;100251.78;5053374;28;20025;-78
2023/12/15 00:35:09;;;;;;;45.03;27.75;;;;;;;2.81;100.00;100256.88;5053300;28;20692;-78
2023/12/15 00:37:34;;;;;;;38.45;26.25;;;;;;;2.83;100.00;100255.00;5052743;28;20033;-78
2023/12/15 00:39:59;;;;;;;44.95;26.60;;;;;;;2.87;100.00;100256.56;5053179;28;20041;-78
2023/12/15 00:42:25;;;;;;;43.45;26.55;;;;;;;2.81;100.00;100251.66;5052653;28;20115;-77
2023/12/15 00:44:50;;;;;;;45.45;27.42;;;;;;;2.77;100.00;100250.09;5052828;28;20036;-77
2023/12/15 00:47:16;;;;;;;44.13;25.65;;;;;;;2.79;100.00;100252.63;5053580;28;20028;-76
2023/12/15 00:49:41;;;;;;;40.42;25.38;;;;;;;2.71;100.00;100263.44;5052817;28;20041;-78
2023/12/15 00:52:07;;;;;;;45.15;26.38;;;;;;;2.82;100.00;100271.59;5052226;28;20025;-78
2023/12/15 00:54:32;;;;;;;42.65;26.25;;;;;;;2.82;100.00;100274.19;5052991;28;20032;-78
2023/12/15 00:56:58;;;;;;;43.15;26.58;;;;;;;2.84;100.00;100274.94;5053324;28;20434;-78
2023/12/15 00:59:23;;;;;;;47.30;27.23;;;;;;;2.85;100.00;100284.47;5052418;28;20024;-79
2023/12/15 01:01:48;;;;;;;44.92;26.02;;;;;;;2.87;100.00;100281.78;5053159;28;20059;-79
2023/12/15 01:04:14;;;;;;;42.47;25.08;;;;;;;2.76;100.00;100279.72;5053137;28;20028;-79
2023/12/15 01:06:41;;;;;;;43.33;26.13;;;;;;;2.65;100.00;100279.38;5051946;28;20037;-79
2023/12/15 01:09:06;;;;;;;40.65;24.75;;;;;;;2.58;100.00;100275.41;5052609;28;20040;-78
2023/12/15 01:11:32;;;;;;;39.50;24.60;;;;;;;2.60;100.00;100288.34;5052700;28;20392;-78
2023/12/15 01:13:57;;;;;;;37.75;25.65;;;;;;;2.57;100.00;100281.53;5047922;28;20064;-78
2023/12/15 01:16:23;;;;;;;39.15;24.38;;;;;;;2.57;100.00;100284.13;5050735;28;20082;-78
2023/12/15 01:18:48;;;;;;;36.78;25.30;;;;;;;2.66;100.00;100288.88;5052773;28;20036;-78
2023/12/15 01:21:14;;;;;;;39.92;23.20;;;;;;;2.78;100.00;100293.50;5053206;28;20541;-80
2023/12/15 01:23:39;;;;;;;40.55;25.05;;;;;;;2.87;100.00;100300.88;5052078;28;20489;-78
2023/12/15 01:26:05;;;;;;;35.92;23.33;;;;;;;2.95;100.00;100299.63;5052490;28;20033;-78
2023/12/15 01:28:30;;;;;;;43.20;24.20;;;;;;;2.96;100.00;100306.53;5052407;28;20105;-78
2023/12/15 01:30:56;;;;;;;39.67;23.95;;;;;;;2.84;100.00;100308.84;5051944;28;20037;-79
2023/12/15 01:33:21;;;;;;;34.55;23.30;;;;;;;2.84;100.00;100303.63;5052446;28;20048;-79
2023/12/15 01:35:47;;;;;;;38.53;24.05;;;;;;;2.80;100.00;100306.47;5052468;28;20393;-78
2023/12/15 01:38:13;;;;;;;37.60;23.23;;;;;;;2.74;100.00;100317.19;5052833;28;20039;-79
2023/12/15 01:40:38;;;;;;;35.28;22.95;;;;;;;2.57;100.00;100325.81;5052395;28;20440;-78
2023/12/15 01:43:04;;;;;;;33.17;22.83;;;;;;;2.50;100.00;100324.44;5052674;28;20396;-78
2023/12/15 01:45:29;;;;;;;35.90;22.92;;;;;;;2.47;100.00;100329.78;5051303;28;20128;-78
2023/12/15 01:47:55;;;;;;;42.38;23.52;;;;;;;2.44;100.00;100319.50;5052089;28;20434;-79
2023/12/15 01:50:21;;;;;;;35.70;23.25;;;;;;;2.44;100.00;100329.94;5050558;28;20113;-79
2023/12/15 01:52:46;;;;;;;38.28;23.42;;;;;;;2.33;100.00;100327.84;5052106;28;20384;-78
2023/12/15 01:55:12;;;;;;;35.78;23.67;;;;;;;2.35;100.00;100335.59;5052232;28;20036;-78
2023/12/15 01:57:38;;;;;;;36.42;22.85;;;;;;;2.50;100.00;100347.88;5049193;28;20180;-77
2023/12/15 02:00:08;;;;;;;37.92;23.08;;;;;;;2.60;100.00;100361.28;5050093;28;20068;-77
2023/12/15 02:02:39;;;;;;;36.88;23.85;;;;;;;2.65;100.00;100349.72;5049867;28;20482;-79
2023/12/15 02:05:05;;;;;;;36.78;23.23;;;;;;;2.62;100.00;100360.31;5050678;28;20055;-78
2023/12/15 02:07:31;;;;;;;39.38;23.77;;;;;;;2.55;100.00;100353.69;5052569;28;20049;-78
2023/12/15 02:09:58;;;;;;;36.63;23.48;;;;;;;2.56;100.00;100360.59;5052429;28;20049;-79
2023/12/15 02:12:23;;;;;;;39.58;24.50;;;;;;;2.30;100.00;100358.38;5052215;28;20040;-78
2023/12/15 02:14:48;;;;;;;37.15;23.50;;;;;;;2.38;100.00;100357.09;5051847;28;20024;-77
2023/12/15 02:17:14;;;;;;;35.40;22.98;;;;;;;2.34;100.00;100362.53;5051189;28;20074;-79
2023/12/15 02:19:39;;;;;;;37.30;23.42;;;;;;;2.17;100.00;100358.13;5051556;28;20120;-77
2023/12/15 02:22:05;;;;;;;38.72;23.75;;;;;;;2.00;100.00;100358.84;5051659;28;20371;-78
2023/12/15 02:24:30;;;;;;;35.80;21.95;;;;;;;1.97;100.00;100372.03;5050718;28;20067;-79
2023/12/15 02:26:56;;;;;;;36.03;23.92;;;;;;;2.01;100.00;100368.34;5052234;28;20029;-79
2023/12/15 02:29:22;;;;;;;34.25;23.48;;;;;;;2.00;100.00;100361.47;5051572;28;20036;-79
2023/12/15 02:31:48;;;;;;;35.95;22.65;;;;;;;1.94;100.00;100377.38;5051793;28;20116;-79
2023/12/15 02:34:13;;;;;;;36.38;22.58;;;;;;;2.11;100.00;100373.16;5051978;28;20033;-79
2023/12/15 02:36:39;;;;;;;34.75;22.45;;;;;;;2.22;100.00;100382.19;5051194;28;20033;-79
2023/12/15 02:39:04;;;;;;;34.58;21.90;;;;;;;2.22;100.00;100386.53;5050355;28;20037;-78
2023/12/15 02:41:30;;;;;;;35.75;22.52;;;;;;;2.17;100.00;100378.09;5053362;28;20046;-78
2023/12/15 02:43:56;;;;;;;32.10;21.58;;;;;;;2.15;100.00;100391.19;5060884;28;20497;-78
2023/12/15 02:46:22;;;;;;;40.17;22.55;;;;;;;2.09;100.00;100385.41;5052262;28;20121;-76
2023/12/15 02:48:48;;;;;;;35.03;20.77;;;;;;;2.02;100.00;100380.47;5051491;28;20413;-78
2023/12/15 02:51:29;;;;;;;32.03;21.40;;;;;;;2.12;100.00;100380.06;5047936;28;20057;-78
2023/12/15 02:53:58;;;;;;;35.50;22.27;;;;;;;1.93;100.00;100380.88;5045560;28;20056;-78
2023/12/15 02:56:24;;;;;;;37.13;22.90;;;;;;;1.90;100.00;100381.00;5048856;28;20152;-79
2023/12/15 02:58:49;;;;;;;39.63;22.42;;;;;;;1.83;100.00;100374.38;5050374;28;20135;-77
2023/12/15 03:01:15;;;;;;;34.83;21.58;;;;;;;1.77;100.00;100379.84;5051212;28;20127;-79
2023/12/15 03:03:40;;;;;;;32.22;21.05;;;;;;;1.76;100.00;100383.41;5050806;28;20131;-79
2023/12/15 03:06:06;;;;;;;37.08;21.83;;;;;;;1.80;100.00;100384.94;5049936;28;20504;-79
2023/12/15 03:08:32;;;;;;;28.95;20.25;;;;;;;1.86;100.00;100395.09;5050588;28;20021;-78
2023/12/15 03:10:58;;;;;;;29.90;20.55;;;;;;;1.86;100.00;100387.28;5050955;28;20057;-78
2023/12/15 03:13:25;;;;;;;32.00;20.80;;;;;;;1.82;100.00;100393.53;5049550;28;20056;-79
2023/12/15 03:15:50;;;;;;;42.13;21.15;;;;;;;1.73;100.00;100386.13;5050891;28;20032;-78
2023/12/15 03:18:16;;;;;;;36.30;22.70;;;;;;;1.87;100.00;100388.97;5049859;28;20021;-78
2023/12/15 03:20:41;;;;;;;31.77;21.02;;;;;;;1.93;100.00;100393.91;5049887;28;20393;-77
2023/12/15 03:23:08;;;;;;;31.70;20.02;;;;;;;2.00;100.00;100397.91;5050582;28;20059;-78
2023/12/15 03:25:33;;;;;;;28.92;20.10;;;;;;;1.99;100.00;100393.63;5050236;28;20442;-78
2023/12/15 03:28:00;;;;;;;31.23;20.27;;;;;;;1.87;100.00;100391.56;5050171;28;20056;-78
2023/12/15 03:30:25;;;;;;;28.75;18.80;;;;;;;1.88;100.00;100395.88;5049691;28;20044;-79
2023/12/15 03:32:51;;;;;;;28.02;19.15;;;;;;;1.82;100.00;100398.75;5050515;28;20071;-79
2023/12/15 03:35:16;;;;;;;35.58;20.52;;;;;;;1.72;100.00;100397.44;5050426;28;20135;-79
2023/12/15 03:37:42;;;;;;;29.35;20.42;;;;;;;1.69;100.00;100402.78;5050049;28;20033;-79
2023/12/15 03:40:08;;;;;;;28.27;19.48;;;;;;;1.67;100.00;100409.78;5045874;28;20033;-79
2023/12/15 03:42:33;;;;;;;29.50;21.05;;;;;;;1.47;100.00;100415.84;5049426;28;20072;-78
2023/12/15 03:44:59;;;;;;;29.65;20.50;;;;;;;1.40;100.00;100418.78;5050176;28;20053;-78
2023/12/15 03:47:25;;;;;;;32.63;21.15;;;;;;;1.34;100.00;100419.03;5049806;28;20507;-77
2023/12/15 03:49:50;;;;;;;29.83;20.05;;;;;;;1.33;100.00;100425.13;5047921;28;20029;-80
2023/12/15 03:52:16;;;;;;;32.13;20.83;;;;;;;1.32;100.00;100423.44;5049311;28;20041;-79
2023/12/15 03:54:41;;;;;;;32.40;20.75;;;;;;;1.39;100.00;100435.28;5048543;28;20136;-78
2023/12/15 03:57:07;;;;;;;33.00;20.90;;;;;;;1.49;100.00;100428.78;5049716;28;20103;-79
2023/12/15 03:59:33;;;;;;;27.98;19.75;;;;;;;1.60;100.00;100429.19;5049164;28;20029;-78
2023/12/15 04:01:59;;;;;;;31.48;19.83;;;;;;;1.68;100.00;100436.66;5049668;28;20029;-78
2023/12/15 04:04:24;;;;;;;27.30;18.50;;;;;;;1.72;100.00;100439.06;5049496;28;20532;-77
2023/12/15 04:06:50;;;;;;;27.90;19.02;;;;;;;1.80;100.00;100447.41;5048821;28;20028;-78
2023/12/15 04:09:16;;;;;;;26.02;18.60;;;;;;;1.88;100.00;100439.28;5048963;28;20049;-76
2023/12/15 04:11:42;;;;;;;24.65;16.45;;;;;;;1.95;100.00;100444.13;5048926;28;20033;-77
2023/12/15 04:14:08;;;;;;;26.85;17.50;;;;;;;2.02;100.00;100442.94;5049205;28;20088;-78
2023/12/15 04:16:34;;;;;;;24.67;16.50;;;;;;;2.09;100.00;100451.34;5049366;28;20029;-79
2023/12/15 04:18:59;;;;;;;23.60;16.98;;;;;;;1.97;100.00;100454.47;5049330;28;20059;-77
2023/12/15 04:21:25;;;;;;;24.65;16.85;;;;;;;1.93;100.00;100464.19;5049380;28;20059;-78
2023/12/15 04:23:51;;;;;;;25.40;17.20;;;;;;;2.05;100.00;100463.66;5049112;28;20082;-78
2023/12/15 04:26:17;;;;;;;27.13;17.83;;;;;;;2.10;100.00;100467.81;5049180;28;20033;-78
2023/12/15 04:28:43;;;;;;;29.02;18.50;;;;;;;2.05;100.00;100486.22;5048407;28;20068;-77
2023/12/15 04:31:15;;;;;;;24.02;17.45;;;;;;;1.95;100.00;100483.16;5049444;28;20449;-78
2023/12/15 04:33:40;;;;;;;27.50;17.58;;;;;;;1.86;100.00;100473.16;5047976;28;20056;-77
2023/12/15 04:36:08;;;;;;;29.50;18.20;;;;;;;1.73;100.00;100478.94;5048307;28;20029;-77
2023/12/15 04:38:34;;;;;;;25.45;17.42;;;;;;;1.56;100.00;100490.06;5047178;28;20105;-77
2023/12/15 04:40:59;;;;;;;23.50;16.50;;;;;;;1.43;100.00;100479.31;5047490;28;20034;-77
2023/12/15 04:43:25;;;;;;;24.58;18.27;;;;;;;1.48;100.00;100484.31;5049005;28;20055;-76
2023/12/15 04:45:50;;;;;;;27.13;18.15;;;;;;;1.54;100.00;100486.66;5049841;28;20509;-77
2023/12/15 04:48:16;;;;;;;26.55;17.27;;;;;;;1.63;100.00;100486.28;5049060;28;20059;-78
2023/12/15 04:50:42;;;;;;;23.52;16.58;;;;;;;1.58;100.00;100499.50;5049028;28;20182;-77
2023/12/15 04:53:07;;;;;;;28.88;18.63;;;;;;;1.56;100.00;100510.88;5050337;28;20485;-78
2023/12/15 04:55:32;;;;;;;21.73;16.67;;;;;;;1.39;100.00;100515.91;5049000;28;20156;-78
2023/12/15 04:57:58;;;;;;;26.30;17.38;;;;;;;1.27;100.00;100513.78;5045985;28;20025;-77
2023/12/15 05:00:23;;;;;;;25.58;17.52;;;;;;;1.19;100.00;100517.53;5048994;28;20060;-77
2023/12/15 05:02:49;;;;;;;22.95;16.25;;;;;;;1.03;100.00;100519.06;5049431;28;20113;-77
2023/12/15 05:05:15;;;;;;;26.25;18.52;;;;;;;0.91;100.00;100514.31;5048920;28;20534;-78
2023/12/15 05:07:41;;;;;;;23.27;17.38;;;;;;;0.92;100.00;100500.44;5048404;28;20476;-79
2023/12/15 05:10:07;;;;;;;23.85;16.90;;;;;;;1.02;100.00;100501.75;5049191;28;20081;-79
2023/12/15 05:12:37;;;;;;;22.02;16.65;;;;;;;1.07;100.00;100502.41;5049227;28;20048;-78
2023/12/15 05:15:03;;;;;;;29.73;18.67;;;;;;;1.00;100.00;100510.53;5045028;28;20036;-78
2023/12/15 05:17:29;;;;;;;27.08;18.05;;;;;;;1.05;100.00;100519.84;5054136;28;20040;-78
2023/12/15 05:19:55;;;;;;;28.20;17.90;;;;;;;1.15;100.00;100523.78;5059574;28;20041;-78
2023/12/15 05:22:20;;;;;;;24.08;17.85;;;;;;;1.13;100.00;100517.78;5053193;28;20140;-79
2023/12/15 05:24:46;;;;;;;26.63;18.60;;;;;;;1.16;100.00;100528.06;5052026;28;20029;-77
2023/12/15 05:27:11;;;;;;;25.23;17.38;;;;;;;1.15;100.00;100531.56;5053201;28;20397;-78
2023/12/15 05:29:44;;;;;;;29.23;18.50;;;;;;;1.19;100.00;100533.13;5052205;28;20128;-78
2023/12/15 05:32:10;;;;;;;28.48;18.88;;;;;;;1.03;100.00;100532.06;5052713;28;20051;-78
2023/12/15 05:34:36;;;;;;;27.65;18.15;;;;;;;1.10;100.00;100537.88;5051393;28;20033;-76
2023/12/15 05:37:01;;;;;;;29.13;19.42;;;;;;;1.15;100.00;100522.94;5052823;28;20039;-77
2023/12/15 05:39:26;;;;;;;27.08;18.38;;;;;;;1.15;100.00;100523.78;5051973;28;20033;-78
2023/12/15 05:41:52;;;;;;;23.65;17.33;;;;;;;0.98;100.00;100528.78;5051631;28;20122;-78
2023/12/15 05:44:17;;;;;;;27.08;16.77;;;;;;;1.05;100.00;100534.59;5052053;28;20025;-78
2023/12/15 05:46:43;;;;;;;26.67;16.92;;;;;;;0.94;100.00;100532.41;5052057;28;20029;-79
2023/12/15 05:49:11;;;;;;;25.52;17.73;;;;;;;1.03;100.00;100532.06;5052937;28;20400;-77
2023/12/15 05:51:37;;;;;;;20.08;15.52;;;;;;;1.10;100.00;100538.72;5052333;28;20107;-77
2023/12/15 05:54:03;;;;;;;20.42;16.95;;;;;;;0.93;100.00;100546.31;5051290;28;20104;-77
2023/12/15 05:56:29;;;;;;;21.75;15.88;;;;;;;0.77;100.00;100563.34;5047686;28;20025;-77
2023/12/15 05:58:56;;;;;;;24.35;17.58;;;;;;;0.68;100.00;100567.16;5049424;28;20043;-74
2023/12/15 06:01:22;;;;;;;21.85;16.48;;;;;;;0.65;100.00;100576.81;5046347;28;20067;-74
2023/12/15 06:03:47;;;;;;;21.98;16.63;;;;;;;0.64;100.00;100570.78;5052220;28;20068;-75
2023/12/15 06:06:13;;;;;;;22.77;16.88;;;;;;;0.70;100.00;100575.75;5051313;28;20105;-74
2023/12/15 06:08:38;;;;;;;23.60;17.30;;;;;;;0.77;100.00;100573.75;5051720;28;20123;-74
2023/12/15 06:11:04;;;;;;;22.35;16.10;;;;;;;0.78;100.00;100578.03;5051603;28;20021;-75
2023/12/15 06:13:29;;;;;;;25.05;16.98;;;;;;;0.80;100.00;100581.44;5047490;28;20183;-76
2023/12/15 06:15:55;;;;;;;21.30;16.05;;;;;;;0.76;100.00;100591.13;5048685;28;20053;-77
2023/12/15 06:18:20;;;;;;;25.67;16.63;;;;;;;0.79;100.00;100584.94;5051031;28;20094;-74
2023/12/15 06:20:46;;;;;;;21.58;16.58;;;;;;;0.88;100.00;100586.38;5044096;28;20040;-76
2023/12/15 06:23:11;;;;;;;25.83;16.95;;;;;;;0.96;100.00;100598.16;5049638;28;20037;-73
2023/12/15 06:25:36;;;;;;;23.23;16.25;;;;;;;0.88;100.00;100595.00;5049212;28;20029;-75
2023/12/15 06:28:02;;;;;;;23.20;15.48;;;;;;;0.93;100.00;100598.28;5048262;28;20441;-74
2023/12/15 06:30:27;;;;;;;23.63;15.90;;;;;;;0.94;100.00;100599.13;5048486;28;20037;-77
2023/12/15 06:32:53;;;;;;;23.02;16.20;;;;;;;1.04;100.00;100600.47;5047287;28;20045;-72
2023/12/15 06:35:18;;;;;;;22.85;16.80;;;;;;;1.05;100.00;100613.41;5049223;28;20040;-75
2023/12/15 06:37:45;;;;;;;22.30;15.52;;;;;;;1.18;100.00;100619.84;5068122;28;20339;-74
2023/12/15 06:40:11;;;;;;;25.00;16.13;;;;;;;1.23;100.00;100615.34;5068347;28;20040;-74
2023/12/15 06:42:37;;;;;;;20.25;14.65;;;;;;;1.11;100.00;100609.75;5055306;28;20032;-76
2023/12/15 06:45:07;;;;;;;22.80;16.30;;;;;;;0.95;100.00;100614.66;5053080;28;20029;-74
2023/12/15 06:47:34;;;;;;;21.45;15.35;;;;;;;0.97;100.00;100594.66;5045664;28;20033;-72
2023/12/15 06:50:00;;;;;;;26.25;17.23;;;;;;;0.96;100.00;100602.50;5048108;28;20519;-72
2023/12/15 06:52:25;;;;;;;22.05;15.52;;;;;;;0.81;100.00;100603.94;5050685;28;20033;-73
2023/12/15 06:54:51;;;;;;;19.83;15.45;;;;;;;0.61;100.00;100611.59;5050943;28;20104;-76
2023/12/15 06:57:16;;;;;;;21.95;15.52;;;;;;;0.59;100.00;100618.59;5050627;28;20493;-74
2023/12/15 06:59:41;;;;;;;18.50;15.40;;;;;;;0.71;100.00;100641.50;5050531;28;20378;-75
2023/12/15 07:02:07;;;;;;;19.63;15.48;;;;;;;0.76;100.00;100639.63;5050793;28;20033;-74
2023/12/15 07:04:32;;;;;;;21.55;15.10;;;;;;;0.84;100.00;100645.38;5050615;28;20063;-74
2023/12/15 07:06:58;;;;;;;20.45;14.30;;;;;;;0.94;100.00;100654.56;5050702;28;20400;-75
2023/12/15 07:09:23;;;;;;;21.75;15.60;;;;;;;1.01;100.00;100656.00;5048512;28;20048;-73
2023/12/15 07:11:50;;;;;;;22.08;14.85;;;;;;;1.02;100.00;100655.09;5048682;28;20025;-75
2023/12/15 07:14:15;;;;;;;25.25;15.57;;;;;;;1.04;100.00;100648.13;5052900;28;20101;-75
2023/12/15 07:16:41;;;;;;;21.58;15.02;;;;;;;0.83;100.00;100648.88;5056367;28;20456;-74
2023/12/15 07:19:06;;;;;;;25.00;16.23;;;;;;;0.74;100.00;100651.81;5051032;28;20088;-76
2023/12/15 07:21:31;;;;;;;19.85;15.57;;;;;;;0.80;100.00;100664.59;5049357;28;20025;-74
2023/12/15 07:23:57;;;;;;;19.80;15.40;;;;;;;0.87;100.00;100660.03;5047563;28;20032;-76
2023/12/15 07:26:22;;;;;;;22.33;13.90;;;;;;;0.83;100.00;100664.47;5046269;28;20067;-74
2023/12/15 07:28:48;;;;;;;18.50;13.45;;;;;;;0.97;100.00;100672.63;5049047;28;20079;-75
2023/12/15 07:31:13;;;;;;;20.13;14.85;;;;;;;1.08;100.00;100675.69;5046036;28;20112;-75
2023/12/15 07:33:39;;;;;;;22.23;14.43;;;;;;;1.01;100.00;100679.41;5047771;28;20029;-75
2023/12/15 07:36:05;;;;;;;18.10;13.20;;;;;;;1.05;100.00;100683.59;5046308;28;20485;-75
2023/12/15 07:38:31;;;;;;;17.05;13.63;;;;;;;1.10;100.00;100683.44;5046085;28;20388;-74
2023/12/15 07:40:56;;;;;;;16.92;13.40;;;;;;;1.18;100.00;100696.97;5050041;28;20095;-75
2023/12/15 07:43:21;;;;;;;22.02;13.93;;;;;;;1.33;100.00;100699.03;5049410;28;20040;-75
2023/12/15 07:45:47;;;;;;;23.75;13.23;;;;;;;1.42;100.00;100705.63;5051643;28;20032;-74
2023/12/15 07:48:13;;;;;;;21.30;14.23;;;;;;;1.55;100.00;100712.06;5045285;28;20417;-74
2023/12/15 07:50:39;;;;;;;20.67;14.30;;;;;;;1.66;100.00;100712.50;5047528;28;20029;-75
2023/12/15 07:53:05;;;;;;;16.27;13.40;;;;;;;1.63;100.00;100713.50;5027912;22;20462;-75
2023/12/15 07:55:31;;;;;;;17.52;13.00;;;;;;;1.62;100.00;100716.16;4987473;28;20026;-74
2023/12/15 07:57:57;;;;;;;19.02;13.90;;;;;;;1.57;100.00;100721.53;4989123;28;20035;-75
2023/12/15 08:00:22;;;;;;;21.35;14.10;;;;;;;1.50;100.00;100719.22;4989253;28;20031;-75
2023/12/15 08:02:48;;;;;;;18.13;14.18;;;;;;;1.60;100.00;100725.75;4989641;28;20031;-74
2023/12/15 08:05:14;;;;;;;16.80;13.68;;;;;;;1.68;100.00;100723.72;4990366;28;20045;-77
2023/12/15 08:07:42;;;;;;;22.38;15.50;;;;;;;1.54;100.00;100712.97;4989418;28;20026;-74
2023/12/15 08:10:08;;;;;;;22.67;16.50;;;;;;;1.60;100.00;100726.59;4985986;28;20038;-74
2023/12/15 08:12:34;;;;;;;18.67;15.32;;;;;;;1.70;100.00;100737.53;4986195;28;20030;-75
2023/12/15 08:14:59;;;;;;;21.55;15.00;;;;;;;1.65;100.00;100735.06;4986294;28;20129;-75
2023/12/15 08:17:25;;;;;;;24.05;16.17;;;;;;;1.47;100.00;100745.34;4989343;28;20385;-75
2023/12/15 08:19:51;;;;;;;21.63;16.02;;;;;;;1.43;100.00;100743.75;4989826;28;20022;-74
2023/12/15 08:22:16;;;;;;;28.80;16.98;;;;;;;1.48;100.00;100753.06;4993228;28;20109;-75
2023/12/15 08:24:43;;;;;;;25.45;16.00;;;;;;;1.64;100.00;100759.44;4989553;28;20034;-74
2023/12/15 08:27:09;;;;;;;22.40;16.38;;;;;;;1.82;100.00;100763.09;4989997;28;20106;-75
2023/12/15 08:29:34;;;;;;;24.77;16.27;;;;;;;1.99;100.00;100765.03;5004108;28;20458;-75
2023/12/15 08:32:00;;;;;;;23.02;15.10;;;;;;;2.09;100.00;100766.38;4990358;28;20031;-75
2023/12/15 08:34:26;;;;;;;21.50;15.25;;;;;;;2.17;100.00;100768.69;4988113;28;20034;-74
2023/12/15 08:36:52;;;;;;;22.15;15.43;;;;;;;2.31;100.00;100771.56;4994698;28;20081;-74
2023/12/15 08:39:18;;;;;;;20.40;14.25;;;;;;;2.36;100.00;100785.25;4989738;28;20077;-76
2023/12/15 08:41:43;;;;;;;19.95;14.50;;;;;;;2.43;100.00;100791.91;4989476;28;20034;-77
2023/12/15 08:44:09;;;;;;;21.20;15.07;;;;;;;2.55;100.00;100791.44;4990325;28;20102;-76
2023/12/15 08:46:35;;;;;;;24.02;15.20;;;;;;;2.65;100.00;100797.94;4989606;28;20026;-76
2023/12/15 08:49:01;;;;;;;20.67;14.38;;;;;;;2.61;100.00;100801.59;4988101;28;20081;-76
2023/12/15 08:51:27;;;;;;;21.80;15.60;;;;;;;2.59;100.00;100802.59;4990404;28;20050;-75
2023/12/15 08:53:53;;;;;;;24.45;14.45;;;;;;;2.49;100.00;100812.53;5000098;28;20049;-77
2023/12/15 08:56:18;;;;;;;20.88;13.70;;;;;;;2.58;100.00;100827.81;5008180;28;20039;-76
2023/12/15 08:58:44;;;;;;;19.63;12.68;;;;;;;2.62;100.00;100831.13;4993979;28;20467;-76
2023/12/15 09:01:09;;;;;;;19.00;13.32;;;;;;;2.81;100.00;100840.75;4994099;28;20033;-76
2023/12/15 09:03:36;;;;;;;18.08;13.05;;;;;;;2.94;100.00;100835.03;4991778;28;20088;-77
2023/12/15 09:06:02;;;;;;;16.85;12.90;;;;;;;3.02;100.00;100843.38;4993036;28;20023;-76
2023/12/15 09:08:28;;;;;;;19.10;13.43;;;;;;;3.06;100.00;100843.19;4993533;28;20160;-76
2023/12/15 09:10:53;;;;;;;16.75;13.02;;;;;;;2.97;100.00;100850.53;4993476;28;20088;-76
2023/12/15 09:13:19;;;;;;;17.92;14.35;;;;;;;2.86;100.00;100859.66;4992830;28;20061;-74
2023/12/15 09:15:46;;;;;;;22.13;15.07;;;;;;;2.84;100.00;100853.66;4993359;28;20136;-74
2023/12/15 09:18:13;;;;;;;24.45;14.68;;;;;;;2.94;100.00;100853.28;4992705;28;20553;-76
2023/12/15 09:20:38;;;;;;;18.13;13.98;;;;;;;3.07;100.00;100857.06;4992447;28;20505;-75
2023/12/15 09:23:19;;;;;;;20.02;15.40;;;;;;;3.26;100.00;100856.22;4994427;28;20035;-76
2023/12/15 09:25:49;;;;;;;18.35;14.15;;;;;;;3.39;100.00;100864.38;4992547;28;20486;-75
2023/12/15 09:28:15;;;;;;;21.93;15.37;;;;;;;3.57;100.00;100865.34;4991744;28;20110;-76
2023/12/15 09:30:41;;;;;;;19.15;14.85;;;;;;;3.70;100.00;100869.13;4992717;28;20447;-75
2023/12/15 09:33:06;;;;;;;20.92;14.30;;;;;;;3.85;100.00;100881.50;4992245;28;20112;-75
2023/12/15 09:35:32;;;;;;;22.38;15.55;;;;;;;3.97;100.00;100877.50;4992196;28;20018;-75
2023/12/15 09:37:58;;;;;;;23.83;15.13;;;;;;;3.95;100.00;100889.75;4998255;28;20035;-75
2023/12/15 09:40:27;;;;;;;23.95;15.52;;;;;;;4.13;100.00;100895.00;4986527;28;20054;-73
2023/12/15 09:42:53;;;;;;;19.85;13.82;;;;;;;4.19;100.00;100893.03;4991463;28;20059;-75
2023/12/15 09:45:19;;;;;;;21.52;14.18;;;;;;;4.11;100.00;100896.00;4991169;28;20038;-75
2023/12/15 09:48:01;;;;;;;23.13;13.35;;;;;;;4.19;100.00;100891.28;4992744;28;20030;-77
2023/12/15 09:50:32;;;;;;;17.83;12.75;;;;;;;4.31;100.00;100889.84;4992809;28;20034;-75
2023/12/15 09:52:58;;;;;;;16.33;11.55;;;;;;;4.20;100.00;100894.72;4992111;28;20058;-74
2023/12/15 09:55:26;;;;;;;18.52;11.82;;;;;;;4.30;100.00;100896.84;4991750;28;20042;-75
2023/12/15 09:57:52;;;;;;;14.75;10.60;;;;;;;4.42;100.00;100901.50;4992491;28;20125;-75
2023/12/15 10:00:18;;;;;;;14.07;10.70;;;;;;;4.49;100.00;100896.84;5007086;28;20113;-75
2023/12/15 10:02:47;;;;;;;15.70;10.77;;;;;;;4.49;100.00;100902.94;4991560;28;20521;-75
2023/12/15 10:05:15;;;;;;;17.48;11.45;;;;;;;4.59;100.00;100897.28;4992974;28;20038;-75
2023/12/15 10:07:40;;;;;;;17.65;11.75;;;;;;;4.68;100.00;100902.06;4991931;28;20026;-75
2023/12/15 10:10:09;;;;;;;15.25;11.23;;;;;;;4.78;100.00;100903.31;4991759;28;20042;-74
2023/12/15 10:12:35;;;;;;;15.10;10.20;;;;;;;4.92;100.00;100906.13;4991915;28;20034;-76
2023/12/15 10:15:01;;;;;;;15.10;10.32;;;;;;;5.02;100.00;100904.75;4992170;28;20116;-76
2023/12/15 10:17:29;;;;;;;17.92;11.05;;;;;;;5.14;100.00;100904.16;4992076;28;20085;-76
2023/12/15 10:20:06;;;;;;;12.88;10.23;;;;;;;5.28;100.00;100909.56;5025545;28;20391;-76
2023/12/15 10:22:32;;;;;;;10.68;9.35;;;;;;;5.43;100.00;100907.06;4987900;28;20030;-76
2023/12/15 10:24:57;;;;;;;13.23;10.25;;;;;;;5.55;100.00;100907.31;4991886;28;20046;-74
2023/12/15 10:27:23;;;;;;;11.52;9.82;;;;;;;5.61;100.00;100898.28;5006402;28;20042;-76
2023/12/15 10:29:49;;;;;;;11.98;9.35;;;;;;;5.68;100.00;100883.97;4989726;28;20038;-74
2023/12/15 10:32:15;;;;;;;11.52;9.60;;;;;;;5.74;100.00;100886.25;5006841;28;20034;-74
2023/12/15 10:34:41;;;;;;;12.23;9.45;;;;;;;5.82;100.00;100884.09;4990251;28;20084;-74
2023/12/15 10:37:17;;;;;;;14.30;9.90;;;;;;;5.87;100.00;100876.88;4991447;28;20173;-76
2023/12/15 10:39:43;;;;;;;10.32;8.50;;;;;;;5.94;100.00;100873.00;4990609;28;20133;-76
2023/12/15 10:42:08;;;;;;;12.38;9.70;;;;;;;6.00;100.00;100872.69;4991497;28;20018;-76
2023/12/15 10:44:35;;;;;;;12.75;9.88;;;;;;;6.07;100.00;100874.03;4991122;28;20038;-76
2023/12/15 10:47:04;;;;;;;11.50;9.60;;;;;;;6.18;100.00;100885.72;4991286;28;20065;-74
2023/12/15 10:49:31;;;;;;;11.73;9.38;;;;;;;6.24;100.00;100880.16;4987539;28;20397;-78
2023/12/15 10:51:57;;;;;;;10.60;9.35;;;;;;;6.29;100.00;100880.75;4991280;28;20550;-75
2023/12/15 10:54:37;;;;;;;14.13;8.38;;;;;;;6.43;100.00;100886.06;4989597;28;20165;-75
2023/12/15 10:57:03;;;;;;;10.00;8.80;;;;;;;6.49;100.00;100885.72;4991039;28;20489;-76
2023/12/15 10:59:30;;;;;;;10.57;8.85;;;;;;;6.57;100.00;100886.16;4991060;28;20026;-76
2023/12/15 11:01:56;;;;;;;11.20;8.50;;;;;;;6.60;100.00;100893.03;4991145;28;20486;-74
2023/12/15 11:04:23;;;;;;;8.85;7.80;;;;;;;6.59;100.00;100886.94;5005784;28;20034;-74